KEUF

Weedon Field Airport

Eufaula, Alabama, USA
METAR KEUF 231958Z AUTO 02004KT 10SM FEW028 SCT038 23/16 A3012 RMK AO2 SLP195 T02280161
Observed Flight Rules
Oct-23 @ 19:58 UTC (44 minutes ago) Visual Flight Rules
Wind Visibility Clouds
20° at 4 knots 10 miles
  • Few at 2,800' AGL
  • Scattered at 3,800' AGL
Temperatures Readings
Current 23°C / 73°F
Dewpoint 16°C / 61°F
Humidity 65%
Altimeter 30.12" Hg
Pressure 1019.5 hPa
Elevation 87
METAR KEUF 231958Z AUTO 02004KT 10SM FEW028 SCT038 23/16 A3012 RMK AO2 SLP195 T02280161
Observed Flight Rules
Oct-23 @ 19:58 UTC
(44 minutes ago)
VFR
Wind Visibility
20° at 4 knots 10 miles
Clouds
  • Few at 2,800' AGL
  • Scattered at 3,800' AGL
Temperature Dewpoint
23°C / 73°F 16°C / 61°F
Humidity Altimeter Pressure
65% 30.12" Hg 1019.5 hPa